Time;durP1;ratioP1;P1;durP2;ratioP2;P2;SDS_P1;SDS_P2;PMS_P1;PMS_P2;Temp;Humidity;BMP_temperature;BMP_pressure;BME280_temperature;BME280_humidity;BME280_pressure;Samples;Min_cycle;Max_cycle;Signal;HPM_P1;HPM_P2
2022/06/17 00:00:38;;;;;;;3.20;2.90;;;;;;;;;;5033741;28;20176;-83
2022/06/17 00:03:42;;;;;;;3.77;2.70;;;;;;;;;;5022449;28;20177;-83
2022/06/17 00:06:49;;;;;;;4.30;2.87;;;;;;;;;;5023713;28;20524;-83
2022/06/17 00:09:53;;;;;;;4.53;2.90;;;;;;;;;;5025013;28;20183;-85
2022/06/17 00:12:57;;;;;;;5.03;2.83;;;;;;;;;;5054658;28;20570;-85
2022/06/17 00:16:02;;;;;;;5.40;3.23;;;;;;;;;;5052616;28;20191;-86
2022/06/17 00:19:06;;;;;;;3.90;3.00;;;;;;;;;;5066338;28;20175;-83
2022/06/17 00:22:10;;;;;;;3.20;2.87;;;;;;;;;;5053711;28;20551;-83
2022/06/17 00:25:23;;;;;;;4.40;2.93;;;;;;;;;;5077558;28;20180;-85
2022/06/17 00:28:28;;;;;;;4.70;2.93;;;;;;;;;;5054950;28;20184;-85
2022/06/17 00:31:32;;;;;;;5.33;2.80;;;;;;;;;;5054802;28;20222;-86
2022/06/17 00:34:36;;;;;;;4.90;3.17;;;;;;;;;;5067098;28;20610;-85
2022/06/17 00:37:41;;;;;;;4.60;3.20;;;;;;;;;;5064575;28;20188;-86
2022/06/17 00:40:45;;;;;;;3.47;2.90;;;;;;;;;;5054470;28;20203;-87
2022/06/17 00:43:49;;;;;;;5.70;3.40;;;;;;;;;;5066281;28;20191;-86
2022/06/17 00:47:02;;;;;;;4.67;3.00;;;;;;;;;;5066719;28;20179;-86
2022/06/17 00:50:16;;;;;;;3.50;2.70;;;;;;;;;;5046520;28;20192;-85
2022/06/17 00:53:24;;;;;;;3.43;3.13;;;;;;;;;;5033997;28;20208;-83
2022/06/17 00:56:31;;;;;;;4.33;3.20;;;;;;;;;;5045022;28;20532;-85
2022/06/17 00:59:35;;;;;;;6.90;3.50;;;;;;;;;;5073027;28;20192;-85
2022/06/17 01:02:45;;;;;;;5.57;2.60;;;;;;;;;;5065777;28;20215;-85
2022/06/17 01:05:54;;;;;;;5.70;2.87;;;;;;;;;;5065731;28;20179;-85
2022/06/17 01:12:54;;;;;;;6.23;2.87;;;;;;;;;;5037545;28;20221;-85
2022/06/17 01:15:58;;;;;;;2.93;2.63;;;;;;;;;;5025528;28;20189;-83
2022/06/17 01:19:32;;;;;;;4.53;3.00;;;;;;;;;;5024102;28;20185;-85
2022/06/17 01:22:49;;;;;;;3.37;2.90;;;;;;;;;;5050070;28;20682;-83
2022/06/17 01:25:54;;;;;;;5.60;3.17;;;;;;;;;;5065670;28;20180;-85
2022/06/17 01:28:58;;;;;;;3.33;2.87;;;;;;;;;;5042770;28;20551;-86
2022/06/17 01:32:03;;;;;;;4.17;2.77;;;;;;;;;;5075935;22;20577;-85
2022/06/17 01:35:09;;;;;;;3.27;2.87;;;;;;;;;;5052988;28;20184;-85
2022/06/17 01:38:13;;;;;;;3.63;3.23;;;;;;;;;;5068877;28;20187;-84
2022/06/17 01:41:21;;;;;;;3.50;3.20;;;;;;;;;;5080020;28;20176;-84
2022/06/17 01:44:33;;;;;;;8.00;3.07;;;;;;;;;;5056290;28;20175;-84
2022/06/17 01:47:41;;;;;;;4.13;3.33;;;;;;;;;;5067641;28;20236;-84
2022/06/17 01:50:50;;;;;;;3.83;3.27;;;;;;;;;;5058510;28;20175;-85
2022/06/17 01:53:57;;;;;;;8.50;3.50;;;;;;;;;;5057571;28;20203;-84
2022/06/17 01:57:05;;;;;;;4.97;2.80;;;;;;;;;;5057687;28;20183;-84
2022/06/17 02:00:14;;;;;;;3.80;3.13;;;;;;;;;;5058140;28;20184;-84
2022/06/17 02:03:27;;;;;;;5.23;3.00;;;;;;;;;;5080213;28;20215;-84
2022/06/17 02:06:38;;;;;;;3.77;3.20;;;;;;;;;;5068827;28;20514;-84
2022/06/17 02:09:43;;;;;;;6.13;3.23;;;;;;;;;;5068056;28;20179;-84
2022/06/17 02:12:48;;;;;;;3.77;2.90;;;;;;;;;;5037853;28;20702;-84
2022/06/17 02:15:52;;;;;;;4.37;2.97;;;;;;;;;;5036586;28;20200;-84
2022/06/17 02:19:15;;;;;;;4.47;3.03;;;;;;;;;;5054985;28;20192;-84
2022/06/17 02:22:24;;;;;;;6.17;3.23;;;;;;;;;;5055865;28;20214;-84
2022/06/17 02:25:37;;;;;;;3.87;3.23;;;;;;;;;;5067876;28;20191;-85
2022/06/17 02:28:43;;;;;;;4.37;2.93;;;;;;;;;;5067450;28;20179;-85
2022/06/17 02:31:47;;;;;;;3.70;2.97;;;;;;;;;;5080183;28;20219;-85
2022/06/17 02:34:58;;;;;;;3.77;2.87;;;;;;;;;;5056319;28;20176;-85
2022/06/17 02:38:03;;;;;;;4.77;3.33;;;;;;;;;;5047216;28;20638;-84
2022/06/17 02:41:13;;;;;;;4.77;3.07;;;;;;;;;;5047588;28;20172;-84
2022/06/17 02:44:28;;;;;;;3.77;3.10;;;;;;;;;;5047553;28;20173;-85
2022/06/17 02:47:34;;;;;;;3.77;3.00;;;;;;;;;;5045268;28;20191;-83
2022/06/17 02:50:39;;;;;;;3.40;3.10;;;;;;;;;;5075770;28;20180;-84
2022/06/17 02:53:45;;;;;;;3.27;2.97;;;;;;;;;;5047878;28;20200;-84
2022/06/17 02:56:53;;;;;;;3.90;3.50;;;;;;;;;;5038048;28;20192;-84
2022/06/17 03:00:13;;;;;;;3.67;3.30;;;;;;;;;;5035426;28;20496;-84
2022/06/17 03:03:20;;;;;;;5.47;2.80;;;;;;;;;;5035130;28;20678;-84
2022/06/17 03:06:33;;;;;;;3.30;3.00;;;;;;;;;;5047848;28;20184;-84
2022/06/17 03:09:37;;;;;;;5.27;3.57;;;;;;;;;;5047374;28;20176;-84
2022/06/17 03:12:43;;;;;;;3.57;2.90;;;;;;;;;;5046528;28;20215;-84
2022/06/17 03:15:52;;;;;;;5.40;3.57;;;;;;;;;;5057887;28;20184;-84
2022/06/17 03:18:56;;;;;;;4.00;3.20;;;;;;;;;;5034899;28;20219;-85
2022/06/17 03:22:00;;;;;;;3.70;3.17;;;;;;;;;;5031627;28;20215;-85
2022/06/17 03:25:12;;;;;;;3.80;2.90;;;;;;;;;;5031602;28;20168;-85
2022/06/17 03:28:24;;;;;;;4.17;3.30;;;;;;;;;;5031146;28;20188;-85
2022/06/17 03:32:03;;;;;;;3.70;3.40;;;;;;;;;;5031575;28;20196;-85
2022/06/17 03:35:17;;;;;;;3.97;3.40;;;;;;;;;;5043066;28;20177;-85
2022/06/17 03:38:47;;;;;;;4.23;3.30;;;;;;;;;;5031467;28;20185;-85
2022/06/17 03:42:06;;;;;;;5.00;3.80;;;;;;;;;;5055330;28;20223;-85
2022/06/17 03:45:16;;;;;;;5.33;3.13;;;;;;;;;;5037161;28;20539;-85
2022/06/17 03:48:47;;;;;;;3.83;3.37;;;;;;;;;;5058727;28;20188;-85
2022/06/17 03:51:59;;;;;;;4.20;3.37;;;;;;;;;;5046812;28;20220;-85
2022/06/17 03:55:04;;;;;;;5.17;3.47;;;;;;;;;;5044916;28;20177;-87
2022/06/17 03:58:15;;;;;;;3.53;2.90;;;;;;;;;;5044958;28;20192;-86
2022/06/17 04:01:27;;;;;;;4.77;3.50;;;;;;;;;;5044745;28;20184;-87
2022/06/17 04:04:45;;;;;;;3.57;3.27;;;;;;;;;;5045495;28;20192;-87
2022/06/17 04:07:49;;;;;;;3.47;3.13;;;;;;;;;;5053150;28;20550;-86
2022/06/17 04:10:54;;;;;;;5.47;3.50;;;;;;;;;;5065148;28;20196;-85
2022/06/17 04:14:05;;;;;;;5.40;3.30;;;;;;;;;;5054199;28;20223;-85
2022/06/17 04:17:40;;;;;;;4.30;3.30;;;;;;;;;;5054462;28;20187;-85
2022/06/17 04:20:54;;;;;;;4.33;3.57;;;;;;;;;;5054208;28;20183;-85
2022/06/17 04:24:01;;;;;;;3.53;3.23;;;;;;;;;;5054530;28;20191;-85
2022/06/17 04:27:56;;;;;;;3.30;3.00;;;;;;;;;;5068637;28;20631;-85
2022/06/17 04:30:59;;;;;;;4.40;3.23;;;;;;;;;;5077211;28;20183;-85
2022/06/17 04:34:14;;;;;;;7.67;3.70;;;;;;;;;;5053419;28;20208;-89
2022/06/17 04:37:23;;;;;;;3.97;3.50;;;;;;;;;;5053530;28;20184;-88
2022/06/17 04:40:57;;;;;;;3.93;3.30;;;;;;;;;;5051322;28;20196;-88
2022/06/17 04:44:19;;;;;;;3.70;3.37;;;;;;;;;;5066689;28;20175;-88
2022/06/17 04:47:24;;;;;;;4.37;3.33;;;;;;;;;;5052484;28;20176;-88
2022/06/17 04:50:36;;;;;;;3.53;3.23;;;;;;;;;;5063206;28;20184;-88
2022/06/17 04:53:45;;;;;;;5.20;3.47;;;;;;;;;;5045933;28;20224;-88
2022/06/17 04:57:11;;;;;;;4.53;3.40;;;;;;;;;;5034958;28;20191;-88
2022/06/17 05:00:27;;;;;;;5.10;3.10;;;;;;;;;;5043421;28;20196;-88
2022/06/17 05:03:34;;;;;;;5.50;3.40;;;;;;;;;;5051858;28;20215;-88
2022/06/17 05:07:08;;;;;;;4.90;3.50;;;;;;;;;;5081189;28;20183;-90
2022/06/17 05:10:21;;;;;;;4.03;3.27;;;;;;;;;;5051774;28;20184;-89
2022/06/17 05:13:37;;;;;;;3.87;3.30;;;;;;;;;;5062841;28;20219;-89
2022/06/17 05:16:41;;;;;;;6.67;3.40;;;;;;;;;;5051934;28;20192;-88
2022/06/17 05:19:48;;;;;;;6.80;3.80;;;;;;;;;;5062802;28;20176;-88
2022/06/17 05:23:00;;;;;;;6.30;3.47;;;;;;;;;;5051447;28;20207;-88
2022/06/17 05:26:03;;;;;;;4.43;3.80;;;;;;;;;;5063005;28;20180;-89
2022/06/17 05:29:09;;;;;;;5.10;3.70;;;;;;;;;;5048396;28;20195;-89
2022/06/17 05:32:19;;;;;;;4.03;3.47;;;;;;;;;;5031896;28;20709;-88
2022/06/17 05:35:26;;;;;;;5.33;3.50;;;;;;;;;;5031481;28;20204;-87
2022/06/17 05:38:30;;;;;;;3.80;3.50;;;;;;;;;;5063368;28;20188;-88
2022/06/17 05:41:35;;;;;;;6.37;3.53;;;;;;;;;;5062557;28;20199;-88
2022/06/17 05:44:40;;;;;;;4.90;3.80;;;;;;;;;;5051346;28;20543;-88
2022/06/17 05:48:00;;;;;;;5.80;3.50;;;;;;;;;;5073768;28;20184;-88
2022/06/17 05:51:27;;;;;;;3.07;2.70;;;;;;;;;;5065201;28;20180;-87
2022/06/17 05:55:02;;;;;;;5.70;3.37;;;;;;;;;;5071759;28;20203;-88
2022/06/17 05:58:07;;;;;;;7.40;2.97;;;;;;;;;;5062673;28;20188;-88
2022/06/17 06:01:12;;;;;;;6.27;3.03;;;;;;;;;;5062481;28;20183;-88
2022/06/17 06:04:16;;;;;;;5.53;2.80;;;;;;;;;;5030303;28;20172;-89
2022/06/17 06:07:21;;;;;;;5.63;3.13;;;;;;;;;;5037306;28;20192;-89
2022/06/17 06:10:26;;;;;;;3.17;2.87;;;;;;;;;;5050779;28;20183;-87
2022/06/17 06:13:31;;;;;;;4.60;2.87;;;;;;;;;;5034304;28;20220;-88
2022/06/17 06:16:38;;;;;;;3.80;2.67;;;;;;;;;;5032660;28;20180;-87
2022/06/17 06:19:42;;;;;;;6.73;2.80;;;;;;;;;;5050994;28;20180;-88
2022/06/17 06:22:47;;;;;;;4.23;2.93;;;;;;;;;;5040597;28;20219;-87
2022/06/17 06:25:51;;;;;;;5.50;3.07;;;;;;;;;;5044296;28;20179;-88
2022/06/17 06:28:56;;;;;;;7.20;3.10;;;;;;;;;;5052182;28;20187;-85
2022/06/17 06:32:09;;;;;;;5.10;2.90;;;;;;;;;;5050985;28;20575;-86
2022/06/17 06:35:26;;;;;;;3.77;2.57;;;;;;;;;;5051858;28;20207;-86
2022/06/17 06:38:31;;;;;;;3.57;2.70;;;;;;;;;;5043062;28;20196;-86
2022/06/17 06:41:35;;;;;;;5.27;2.70;;;;;;;;;;5042738;28;20187;-86
2022/06/17 06:44:39;;;;;;;5.20;3.00;;;;;;;;;;5042907;28;20528;-86
2022/06/17 06:47:59;;;;;;;4.37;2.70;;;;;;;;;;5039224;28;20192;-86
2022/06/17 06:51:05;;;;;;;3.27;2.60;;;;;;;;;;5030716;28;20180;-86
2022/06/17 06:54:09;;;;;;;6.37;2.60;;;;;;;;;;5030305;28;20203;-86
2022/06/17 06:57:16;;;;;;;5.53;2.90;;;;;;;;;;5042658;28;20211;-86
2022/06/17 07:00:28;;;;;;;5.30;2.97;;;;;;;;;;5038639;28;20180;-86
2022/06/17 07:03:32;;;;;;;9.10;3.30;;;;;;;;;;5030660;28;20220;-85
2022/06/17 07:06:37;;;;;;;6.33;3.00;;;;;;;;;;5050582;28;20192;-86
2022/06/17 07:09:41;;;;;;;4.57;3.13;;;;;;;;;;5053186;28;20175;-86
2022/06/17 07:12:45;;;;;;;8.40;3.60;;;;;;;;;;5030851;28;20220;-88
2022/06/17 07:15:52;;;;;;;4.23;3.20;;;;;;;;;;5046898;28;20199;-87
2022/06/17 07:18:56;;;;;;;3.73;2.90;;;;;;;;;;5066613;28;20183;-87
2022/06/17 07:22:00;;;;;;;3.77;3.33;;;;;;;;;;5054939;28;20219;-88
2022/06/17 07:25:05;;;;;;;4.27;2.90;;;;;;;;;;5055390;28;20175;-89
2022/06/17 07:28:14;;;;;;;4.90;2.57;;;;;;;;;;5066451;28;20180;-89
2022/06/17 07:31:18;;;;;;;6.13;2.80;;;;;;;;;;5055149;28;20199;-88
2022/06/17 07:34:22;;;;;;;8.40;3.10;;;;;;;;;;5055374;28;20211;-85
2022/06/17 07:40:49;;;;;;;4.07;2.87;;;;;;;;;;5066847;28;20189;-85
2022/06/17 07:43:53;;;;;;;5.03;2.87;;;;;;;;;;5055638;28;20183;-85
2022/06/17 07:46:58;;;;;;;4.57;2.73;;;;;;;;;;5065827;28;20518;-85
2022/06/17 07:50:05;;;;;;;3.27;2.70;;;;;;;;;;5055039;28;20559;-86
2022/06/17 07:53:09;;;;;;;6.53;2.93;;;;;;;;;;5053895;28;20558;-85
2022/06/17 07:56:15;;;;;;;4.80;2.83;;;;;;;;;;5076418;28;20187;-86
2022/06/17 07:59:20;;;;;;;2.65;2.40;;;;;;;;;;5089011;22;20226;-87
2022/06/17 08:02:24;;;;;;;4.28;2.55;;;;;;;;;;5064410;28;20568;-86
2022/06/17 08:05:28;;;;;;;2.88;2.10;;;;;;;;;;5064189;28;20198;-86
2022/06/17 08:08:34;;;;;;;5.28;2.47;;;;;;;;;;5064555;28;20181;-85
2022/06/17 08:11:38;;;;;;;2.88;2.00;;;;;;;;;;5052974;28;20182;-86
2022/06/17 08:14:46;;;;;;;6.28;2.63;;;;;;;;;;5064114;28;20209;-86
2022/06/17 08:17:52;;;;;;;4.07;2.63;;;;;;;;;;5063768;28;20181;-86
2022/06/17 08:20:56;;;;;;;16.63;2.92;;;;;;;;;;5064542;28;20183;-86
2022/06/17 08:24:00;;;;;;;2.10;1.90;;;;;;;;;;5075487;28;20194;-86
2022/06/17 08:27:05;;;;;;;3.25;2.35;;;;;;;;;;5052288;28;20624;-86
2022/06/17 08:30:10;;;;;;;8.73;2.67;;;;;;;;;;5052365;28;20217;-86
2022/06/17 08:33:15;;;;;;;5.57;2.40;;;;;;;;;;5075731;28;20200;-86
2022/06/17 08:36:25;;;;;;;6.63;2.50;;;;;;;;;;5075515;28;20562;-86
2022/06/17 08:39:32;;;;;;;6.20;2.25;;;;;;;;;;5052077;28;20217;-86
2022/06/17 08:43:03;;;;;;;6.38;2.13;;;;;;;;;;5064083;28;20180;-86
2022/06/17 08:46:39;;;;;;;5.97;2.10;;;;;;;;;;5064374;28;20609;-86
2022/06/17 08:50:00;;;;;;;4.35;2.25;;;;;;;;;;5052188;28;20213;-86
2022/06/17 08:53:23;;;;;;;2.92;2.35;;;;;;;;;;5063757;28;20527;-86
2022/06/17 08:56:34;;;;;;;7.15;2.40;;;;;;;;;;5052849;28;20211;-87
2022/06/17 09:00:18;;;;;;;3.55;2.17;;;;;;;;;;5063350;28;20223;-86
2022/06/17 09:03:43;;;;;;;4.90;2.25;;;;;;;;;;5051636;28;20176;-86
2022/06/17 09:06:50;;;;;;;7.60;2.60;;;;;;;;;;5052089;28;20543;-86
2022/06/17 09:10:05;;;;;;;6.63;2.15;;;;;;;;;;5051686;28;20212;-86
2022/06/17 09:13:42;;;;;;;5.55;1.80;;;;;;;;;;5063445;28;20192;-86
2022/06/17 09:17:07;;;;;;;3.10;1.67;;;;;;;;;;5063894;28;20172;-86
2022/06/17 09:20:17;;;;;;;4.20;1.75;;;;;;;;;;5052051;28;20208;-86
2022/06/17 09:23:25;;;;;;;4.25;1.83;;;;;;;;;;5053263;28;20172;-86
2022/06/17 09:26:45;;;;;;;3.00;1.85;;;;;;;;;;5076016;28;20184;-86
2022/06/17 09:30:00;;;;;;;10.45;2.67;;;;;;;;;;5052810;28;20215;-85
2022/06/17 09:33:17;;;;;;;3.28;1.80;;;;;;;;;;5063712;28;20627;-86
2022/06/17 09:36:29;;;;;;;4.63;2.20;;;;;;;;;;5052416;28;20204;-86
2022/06/17 09:39:45;;;;;;;4.20;1.58;;;;;;;;;;5062466;28;20663;-86
2022/06/17 09:43:03;;;;;;;3.33;1.67;;;;;;;;;;5051884;28;20172;-86
2022/06/17 09:46:25;;;;;;;3.35;1.90;;;;;;;;;;5051470;28;20282;-86
2022/06/17 09:49:49;;;;;;;3.85;1.73;;;;;;;;;;5063196;28;20216;-86
2022/06/17 09:53:07;;;;;;;5.55;2.13;;;;;;;;;;5051753;28;20181;-86
2022/06/17 09:56:18;;;;;;;5.93;1.83;;;;;;;;;;5052084;28;20204;-86
2022/06/17 09:59:32;;;;;;;3.58;2.00;;;;;;;;;;5051805;28;20223;-86
2022/06/17 10:02:57;;;;;;;3.05;1.60;;;;;;;;;;5051430;28;20184;-86
2022/06/17 10:06:26;;;;;;;7.60;2.00;;;;;;;;;;5073413;28;20172;-86
2022/06/17 10:09:45;;;;;;;2.28;1.70;;;;;;;;;;5063569;28;20215;-86
2022/06/17 10:13:19;;;;;;;8.50;1.77;;;;;;;;;;5050977;28;20191;-86
2022/06/17 10:20:46;;;;;;;4.15;1.50;;;;;;;;;;5073594;28;20211;-87
2022/06/17 10:24:09;;;;;;;2.75;1.55;;;;;;;;;;5045523;28;20208;-86
2022/06/17 10:27:24;;;;;;;3.25;1.58;;;;;;;;;;5050567;28;20519;-86
2022/06/17 10:30:34;;;;;;;2.70;1.77;;;;;;;;;;5050514;28;20215;-86
2022/06/17 10:33:39;;;;;;;2.10;1.63;;;;;;;;;;5050596;28;20184;-86
2022/06/17 10:36:45;;;;;;;2.22;1.70;;;;;;;;;;5062873;28;20211;-86
2022/06/17 10:39:50;;;;;;;3.65;1.50;;;;;;;;;;5073758;28;20219;-87
2022/06/17 10:42:57;;;;;;;2.65;1.40;;;;;;;;;;5061827;28;20187;-87
2022/06/17 10:46:01;;;;;;;6.50;1.50;;;;;;;;;;5062222;28;20172;-87
2022/06/17 10:49:15;;;;;;;1.63;1.52;;;;;;;;;;5074240;28;20219;-86
2022/06/17 10:52:30;;;;;;;2.70;1.50;;;;;;;;;;5052382;28;20196;-86
2022/06/17 10:55:38;;;;;;;7.40;2.10;;;;;;;;;;5051885;28;20212;-87
2022/06/17 10:59:06;;;;;;;2.10;1.63;;;;;;;;;;5074751;28;20224;-87
2022/06/17 11:02:23;;;;;;;3.03;1.48;;;;;;;;;;5063447;28;20176;-87
2022/06/17 11:05:36;;;;;;;4.65;1.98;;;;;;;;;;5061529;28;20171;-86
2022/06/17 11:08:55;;;;;;;3.33;1.70;;;;;;;;;;5072622;28;20179;-86
2022/06/17 11:12:02;;;;;;;4.50;1.80;;;;;;;;;;5061729;28;20180;-89
2022/06/17 11:15:27;;;;;;;4.20;1.50;;;;;;;;;;5061025;28;20546;-86
2022/06/17 11:18:33;;;;;;;2.88;1.23;;;;;;;;;;5060739;28;20184;-86
2022/06/17 11:21:44;;;;;;;5.10;1.73;;;;;;;;;;5061018;28;20179;-86
2022/06/17 11:24:55;;;;;;;2.08;1.50;;;;;;;;;;5049303;28;20646;-86
2022/06/17 11:28:23;;;;;;;6.00;2.20;;;;;;;;;;5061620;28;20219;-86
2022/06/17 11:31:27;;;;;;;7.63;2.08;;;;;;;;;;5076374;28;20183;-86
2022/06/17 11:34:32;;;;;;;3.08;1.95;;;;;;;;;;5060862;28;20175;-86
2022/06/17 11:37:36;;;;;;;6.30;2.28;;;;;;;;;;5050410;28;20173;-86
2022/06/17 11:40:52;;;;;;;2.67;1.80;;;;;;;;;;5061018;28;20542;-86
2022/06/17 11:44:06;;;;;;;2.88;1.98;;;;;;;;;;5060871;28;20184;-86
2022/06/17 11:47:10;;;;;;;2.97;1.70;;;;;;;;;;5060501;28;20188;-86
2022/06/17 11:50:19;;;;;;;3.88;1.85;;;;;;;;;;5072180;28;20224;-87
2022/06/17 11:53:24;;;;;;;4.40;1.88;;;;;;;;;;5060657;28;20188;-87
2022/06/17 11:56:39;;;;;;;5.05;2.00;;;;;;;;;;5060377;28;20204;-86
2022/06/17 11:59:47;;;;;;;5.15;1.95;;;;;;;;;;5060313;28;20219;-86
2022/06/17 12:02:56;;;;;;;2.40;1.65;;;;;;;;;;5050809;28;20631;-88
2022/06/17 12:06:03;;;;;;;1.98;1.42;;;;;;;;;;5053781;28;20172;-86
2022/06/17 12:09:25;;;;;;;9.88;2.20;;;;;;;;;;5064111;28;20219;-86
2022/06/17 12:12:31;;;;;;;3.33;1.60;;;;;;;;;;5033104;28;20192;-86
2022/06/17 12:15:42;;;;;;;4.18;1.70;;;;;;;;;;5044463;28;20205;-87
2022/06/17 12:18:48;;;;;;;5.47;1.77;;;;;;;;;;5055564;28;20220;-86
2022/06/17 12:21:59;;;;;;;3.40;1.65;;;;;;;;;;5043063;28;20188;-84
2022/06/17 12:25:25;;;;;;;3.25;1.38;;;;;;;;;;5044131;28;20196;-84
2022/06/17 12:28:31;;;;;;;5.15;1.77;;;;;;;;;;5033041;28;20185;-86
2022/06/17 12:31:46;;;;;;;2.75;1.88;;;;;;;;;;5043982;28;20192;-86
2022/06/17 12:35:10;;;;;;;4.35;2.17;;;;;;;;;;5043685;28;20527;-87
2022/06/17 12:38:56;;;;;;;2.95;1.60;;;;;;;;;;5039838;28;20196;-86
2022/06/17 12:42:08;;;;;;;4.82;1.85;;;;;;;;;;5055527;28;20192;-87
2022/06/17 12:45:55;;;;;;;1.70;1.50;;;;;;;;;;5062540;28;20658;-86
2022/06/17 12:53:31;;;;;;;3.05;1.67;;;;;;;;;;5064590;28;20180;-87
2022/06/17 12:57:02;;;;;;;3.08;1.38;;;;;;;;;;5045186;28;20220;-86
2022/06/17 13:00:12;;;;;;;3.42;1.33;;;;;;;;;;5033391;28;20223;-86
2022/06/17 13:03:37;;;;;;;2.95;1.40;;;;;;;;;;5033325;28;20189;-84
2022/06/17 13:06:54;;;;;;;1.48;1.20;;;;;;;;;;5046586;28;20189;-86
2022/06/17 13:13:44;;;;;;;3.80;1.40;;;;;;;;;;5051983;28;20539;-86
2022/06/17 13:17:12;;;;;;;3.13;1.20;;;;;;;;;;5063334;28;20674;-86
2022/06/17 13:20:27;;;;;;;2.55;1.00;;;;;;;;;;5041884;28;20215;-86
2022/06/17 13:23:47;;;;;;;3.45;1.50;;;;;;;;;;5043250;28;20231;-87
2022/06/17 13:27:13;;;;;;;2.53;1.25;;;;;;;;;;5052159;28;20180;-86
2022/06/17 13:30:26;;;;;;;4.03;1.50;;;;;;;;;;5043600;28;20220;-86
2022/06/17 13:33:35;;;;;;;2.13;1.30;;;;;;;;;;5053829;28;20184;-86
2022/06/17 13:36:58;;;;;;;2.17;1.27;;;;;;;;;;5059252;28;20215;-86
2022/06/17 13:40:13;;;;;;;3.47;1.20;;;;;;;;;;5031494;28;20663;-87
2022/06/17 13:43:21;;;;;;;2.75;1.42;;;;;;;;;;5054540;28;20542;-87
2022/06/17 13:46:43;;;;;;;7.55;1.30;;;;;;;;;;5049269;28;20184;-86
2022/06/17 13:50:05;;;;;;;2.38;1.30;;;;;;;;;;5064255;28;20220;-86
2022/06/17 13:53:48;;;;;;;2.58;1.30;;;;;;;;;;5031276;28;20181;-86
2022/06/17 13:57:01;;;;;;;2.10;1.25;;;;;;;;;;5031458;28;20209;-87
2022/06/17 14:00:20;;;;;;;4.63;1.60;;;;;;;;;;5083562;23;20235;-86
2022/06/17 14:03:53;;;;;;;2.50;1.40;;;;;;;;;;5050690;28;20176;-86
2022/06/17 14:06:59;;;;;;;2.30;1.27;;;;;;;;;;5062119;28;20172;-86
2022/06/17 14:10:40;;;;;;;1.67;1.40;;;;;;;;;;5049197;28;20223;-85
2022/06/17 14:13:44;;;;;;;3.70;1.50;;;;;;;;;;5075651;28;20184;-86
2022/06/17 14:16:58;;;;;;;1.70;1.13;;;;;;;;;;5061438;28;20311;-86
2022/06/17 14:20:26;;;;;;;3.67;1.35;;;;;;;;;;5072616;28;20227;-86
2022/06/17 14:23:45;;;;;;;5.50;1.30;;;;;;;;;;5063563;28;20176;-86
2022/06/17 14:26:51;;;;;;;2.28;1.27;;;;;;;;;;5046901;28;20192;-86
2022/06/17 14:30:11;;;;;;;1.83;1.30;;;;;;;;;;5058193;28;20223;-86
2022/06/17 14:33:19;;;;;;;2.35;1.63;;;;;;;;;;5061987;28;20176;-86
2022/06/17 14:36:54;;;;;;;2.92;1.50;;;;;;;;;;5054072;28;20209;-86
2022/06/17 14:40:27;;;;;;;4.53;1.40;;;;;;;;;;5041951;28;20209;-83
2022/06/17 14:43:33;;;;;;;1.95;1.23;;;;;;;;;;5057503;28;20534;-83
2022/06/17 14:47:17;;;;;;;1.48;1.30;;;;;;;;;;5040313;28;20180;-83
2022/06/17 14:50:47;;;;;;;3.08;1.48;;;;;;;;;;5041941;28;20220;-86
2022/06/17 14:53:52;;;;;;;3.72;1.27;;;;;;;;;;5042158;28;20177;-83
2022/06/17 14:57:26;;;;;;;2.88;1.33;;;;;;;;;;5053831;28;20212;-83
2022/06/17 15:01:12;;;;;;;2.58;1.33;;;;;;;;;;5073609;28;20223;-84
2022/06/17 15:04:29;;;;;;;2.22;1.27;;;;;;;;;;5033645;28;20204;-84
2022/06/17 15:07:38;;;;;;;2.28;1.23;;;;;;;;;;5045229;28;20187;-86
2022/06/17 15:11:08;;;;;;;2.03;1.10;;;;;;;;;;5047774;28;20211;-86
2022/06/17 15:14:18;;;;;;;5.75;1.38;;;;;;;;;;5047215;28;20180;-86
2022/06/17 15:17:46;;;;;;;2.13;1.58;;;;;;;;;;5060594;28;20216;-87
2022/06/17 15:20:53;;;;;;;2.78;1.40;;;;;;;;;;5049890;28;20214;-87
2022/06/17 15:24:17;;;;;;;3.53;1.58;;;;;;;;;;5032876;28;20184;-85
2022/06/17 15:27:24;;;;;;;3.72;1.33;;;;;;;;;;5029747;28;20181;-86
2022/06/17 15:30:35;;;;;;;2.17;1.20;;;;;;;;;;5029710;28;20563;-85
2022/06/17 15:33:46;;;;;;;3.33;1.27;;;;;;;;;;5039031;28;20192;-85
2022/06/17 15:36:52;;;;;;;2.55;1.23;;;;;;;;;;5041312;28;20209;-85
2022/06/17 15:40:15;;;;;;;2.17;1.17;;;;;;;;;;5056413;28;20553;-86
2022/06/17 15:43:23;;;;;;;5.18;1.42;;;;;;;;;;5065236;28;20196;-86
2022/06/17 15:46:37;;;;;;;1.63;1.30;;;;;;;;;;5066064;28;20192;-85
2022/06/17 15:49:48;;;;;;;3.28;1.30;;;;;;;;;;5042345;28;20212;-86
2022/06/17 15:52:53;;;;;;;3.15;1.40;;;;;;;;;;5048031;28;20184;-86
2022/06/17 15:55:57;;;;;;;4.72;1.40;;;;;;;;;;5038946;28;20192;-86
2022/06/17 15:59:08;;;;;;;1.80;1.48;;;;;;;;;;5067539;28;20195;-85
2022/06/17 16:02:43;;;;;;;2.78;1.60;;;;;;;;;;5054497;28;20550;-85
2022/06/17 16:05:51;;;;;;;2.80;1.30;;;;;;;;;;5058006;28;20184;-86
2022/06/17 16:08:57;;;;;;;1.48;1.38;;;;;;;;;;5037901;28;20187;-87
2022/06/17 16:12:23;;;;;;;2.67;1.38;;;;;;;;;;5031967;28;20187;-86
2022/06/17 16:15:39;;;;;;;2.17;1.42;;;;;;;;;;5049490;28;20225;-84
2022/06/17 16:18:49;;;;;;;2.47;1.52;;;;;;;;;;5026805;28;20173;-85
2022/06/17 16:22:00;;;;;;;2.42;1.35;;;;;;;;;;5035266;28;20195;-84
2022/06/17 16:25:17;;;;;;;3.20;1.60;;;;;;;;;;5048881;28;20194;-85
2022/06/17 16:28:33;;;;;;;6.63;1.45;;;;;;;;;;5064730;28;20189;-85
2022/06/17 16:31:36;;;;;;;3.15;1.48;;;;;;;;;;5012498;28;20190;-85
2022/06/17 16:34:42;;;;;;;2.20;1.48;;;;;;;;;;5040486;28;20190;-85
2022/06/17 16:37:52;;;;;;;1.90;1.52;;;;;;;;;;5063592;28;20221;-85
2022/06/17 16:44:51;;;;;;;2.50;1.50;;;;;;;;;;5043625;28;20193;-85
2022/06/17 16:47:58;;;;;;;5.35;1.40;;;;;;;;;;5026396;28;20179;-85
2022/06/17 16:51:03;;;;;;;3.28;1.50;;;;;;;;;;5032063;28;20228;-85
2022/06/17 16:54:10;;;;;;;2.63;1.33;;;;;;;;;;5043793;28;20206;-84
2022/06/17 16:57:28;;;;;;;1.65;1.45;;;;;;;;;;5026928;28;20224;-85
2022/06/17 17:00:33;;;;;;;6.15;1.80;;;;;;;;;;5033147;28;20229;-85
2022/06/17 17:03:37;;;;;;;3.85;1.80;;;;;;;;;;5033101;28;20184;-85
2022/06/17 17:06:42;;;;;;;2.05;1.60;;;;;;;;;;5050182;28;20614;-85
2022/06/17 17:09:47;;;;;;;1.90;1.63;;;;;;;;;;5036114;28;20691;-85
2022/06/17 17:12:57;;;;;;;4.05;1.45;;;;;;;;;;5025891;28;20191;-85
2022/06/17 17:16:02;;;;;;;4.65;1.60;;;;;;;;;;5044168;28;20215;-84
2022/06/17 17:19:06;;;;;;;1.83;1.50;;;;;;;;;;5034136;28;20532;-84
2022/06/17 17:22:18;;;;;;;6.47;1.80;;;;;;;;;;5046265;28;20552;-85
2022/06/17 17:25:34;;;;;;;2.80;1.67;;;;;;;;;;5037622;28;20194;-84
2022/06/17 17:28:38;;;;;;;3.13;1.60;;;;;;;;;;5046275;28;20624;-84
2022/06/17 17:31:43;;;;;;;2.25;1.60;;;;;;;;;;5015041;28;20180;-85
2022/06/17 17:34:48;;;;;;;5.07;1.65;;;;;;;;;;5015799;28;20181;-84
2022/06/17 17:37:52;;;;;;;4.68;1.55;;;;;;;;;;5049305;28;20208;-85
2022/06/17 17:44:23;;;;;;;2.37;1.70;;;;;;;;;;5045759;28;20185;-84
2022/06/17 17:47:27;;;;;;;3.30;1.70;;;;;;;;;;5043450;28;20186;-85
2022/06/17 17:50:35;;;;;;;2.40;1.87;;;;;;;;;;5053630;28;20217;-85
2022/06/17 17:53:39;;;;;;;2.03;1.47;;;;;;;;;;5066571;28;20197;-84
2022/06/17 17:56:44;;;;;;;11.70;2.00;;;;;;;;;;5054336;28;20515;-84
2022/06/17 17:59:49;;;;;;;2.80;2.00;;;;;;;;;;5045730;28;20235;-85
2022/06/17 18:02:54;;;;;;;4.23;1.77;;;;;;;;;;5074405;28;20179;-86
2022/06/17 18:05:58;;;;;;;2.33;1.83;;;;;;;;;;5057669;28;20200;-84
2022/06/17 18:09:03;;;;;;;5.33;2.10;;;;;;;;;;5034645;28;20180;-84
2022/06/17 18:12:09;;;;;;;2.53;1.97;;;;;;;;;;5044949;28;20640;-84
2022/06/17 18:15:13;;;;;;;2.80;2.03;;;;;;;;;;5045714;28;20655;-84
2022/06/17 18:18:18;;;;;;;7.57;2.20;;;;;;;;;;5032003;28;20561;-85
2022/06/17 18:21:25;;;;;;;5.50;1.93;;;;;;;;;;5033639;28;20197;-84
2022/06/17 18:24:30;;;;;;;6.93;1.90;;;;;;;;;;5045119;28;20181;-85
2022/06/17 18:27:35;;;;;;;9.87;1.80;;;;;;;;;;5059544;28;20185;-84
2022/06/17 18:30:40;;;;;;;2.47;1.47;;;;;;;;;;5068241;28;20223;-84
2022/06/17 18:33:44;;;;;;;1.97;1.63;;;;;;;;;;5076263;28;20627;-84
2022/06/17 18:36:48;;;;;;;2.10;1.60;;;;;;;;;;5034726;28;20190;-85
2022/06/17 18:39:54;;;;;;;5.70;2.10;;;;;;;;;;5056551;28;20211;-84
2022/06/17 18:42:58;;;;;;;3.47;2.10;;;;;;;;;;5013699;28;20537;-84
2022/06/17 18:46:02;;;;;;;2.70;1.70;;;;;;;;;;5034918;28;20172;-85
2022/06/17 18:49:15;;;;;;;2.93;2.10;;;;;;;;;;5050761;28;20183;-85
2022/06/17 18:52:22;;;;;;;5.97;2.00;;;;;;;;;;5053407;28;20196;-84
2022/06/17 18:55:30;;;;;;;2.60;2.00;;;;;;;;;;5051197;28;20192;-85
2022/06/17 18:58:34;;;;;;;6.20;2.00;;;;;;;;;;5049832;28;20207;-86
2022/06/17 19:01:44;;;;;;;3.07;1.77;;;;;;;;;;5043471;28;20192;-86
2022/06/17 19:04:50;;;;;;;3.53;1.87;;;;;;;;;;5053017;28;20520;-86
2022/06/17 19:18:11;;;;;;;2.83;2.33;;;;;;;;;;5028606;28;20205;-86
2022/06/17 19:21:17;;;;;;;2.93;1.93;;;;;;;;;;5066019;28;20211;-86
2022/06/17 19:24:21;;;;;;;2.73;1.90;;;;;;;;;;5065336;28;20187;-86
2022/06/17 19:27:31;;;;;;;2.77;2.23;;;;;;;;;;5068273;28;20179;-85
2022/06/17 19:30:36;;;;;;;1.93;1.73;;;;;;;;;;5067142;28;20215;-86
2022/06/17 19:33:41;;;;;;;3.10;1.87;;;;;;;;;;5055920;28;20187;-85
2022/06/17 19:36:46;;;;;;;7.13;2.00;;;;;;;;;;5039788;28;20184;-85
2022/06/17 19:39:50;;;;;;;3.77;1.70;;;;;;;;;;5027862;28;20242;-85
2022/06/17 19:42:54;;;;;;;2.73;2.00;;;;;;;;;;5028027;28;20184;-85
2022/06/17 19:45:59;;;;;;;3.70;2.33;;;;;;;;;;5045589;28;20542;-84